< Cyclone 202005 2020 Season Cyclone 202007 >
Cyclone 202006 (Uesi)
General InformationDetailed Track InformationTrack Information on Google Maps || ResourceGoogle EarthGE AnimationAtom FeedGeoJSON
Detalied Best Track Wind (Time Zone = UTC)
Year Month Day Hour Lat. Long. Wind (kt) Gust (kt) Direc. of Major Storm Axis Radius of Major Storm Axis (nm) Radius of Minor Storm Axis (nm) Direc. of Major Gale Axis Radius of Major Gale Axis (nm) Radius of Minor Gale Axis (nm) Image
2020 2 6 06 -13.0 163.1 0 -1 symmetric - - symmetric - - Image
2020 2 6 12 -13.9 162.0 15 45 symmetric - - symmetric - - Image
2020 2 6 18 -13.4 162.7 15 45 symmetric - - symmetric - - Image
2020 2 7 00 -13.6 161.2 15 45 symmetric - - symmetric - - Image
2020 2 7 12 -13.6 163.9 20 45 symmetric - - symmetric - - Image
2020 2 7 18 -13.6 163.7 20 45 symmetric - - symmetric - - Image
2020 2 8 00 -13.5 163.6 25 45 symmetric - - symmetric - - Image
2020 2 8 06 -13.9 163.4 25 45 symmetric - - symmetric - - Image
2020 2 8 12 -14.3 163.5 25 45 symmetric - - symmetric - - Image
2020 2 8 18 -14.6 163.5 25 45 symmetric - - symmetric - - Image
2020 2 9 00 -14.8 163.6 30 45 symmetric - - symmetric - - Image
2020 2 9 06 -15.3 163.8 30 45 symmetric - - symmetric - - Image
2020 2 9 12 -15.8 163.9 35 50 symmetric - - symmetric - - Image
2020 2 9 18 -16.2 163.4 50 70 symmetric - - symmetric - - Image
2020 2 10 00 -16.8 162.9 50 70 symmetric - - symmetric - - Image
2020 2 10 06 -17.2 162.9 55 75 symmetric - - symmetric - - Image
2020 2 10 12 -17.7 162.9 55 75 symmetric - - symmetric - - Image
2020 2 10 18 -18.5 162.7 65 90 symmetric - - symmetric - - Image
2020 2 11 00 -18.8 162.7 65 90 symmetric - - symmetric - - Image
2020 2 11 06 -19.5 162.8 65 90 symmetric - - symmetric - - Image
2020 2 11 12 -20.5 162.9 65 90 symmetric - - symmetric - - Image
2020 2 11 18 -21.3 162.7 70 90 symmetric - - symmetric - - Image
2020 2 12 00 -22.3 162.7 65 90 symmetric - - symmetric - - Image
2020 2 12 06 -23.4 162.3 60 85 symmetric - - symmetric - - Image
2020 2 12 18 -25.6 161.7 55 -1 symmetric - - symmetric - - Image
2020 2 13 00 -27.3 161.0 53.333332 -1 symmetric - - symmetric - - Image
2020 2 13 06 -28.7 160.5 51.666668 -1 symmetric - - symmetric - - Image
2020 2 13 12 -30.0 160.0 50 75 symmetric - - symmetric - - Image
2020 2 13 18 -31.4 159.4 45 75 symmetric - - symmetric - - Image
2020 2 14 00 -32.9 158.7 45 75 symmetric - - symmetric - - Image
2020 2 14 06 -33.8 158.6 45 75 symmetric - - symmetric - - Image
2020 2 14 12 -34.6 159.1 40 70 symmetric - - symmetric - - Image
2020 2 14 18 -36.0 159.6 40 60 symmetric - - symmetric - - Image
2020 2 15 00 -37.3 159.8 40 55 symmetric - - symmetric - - Image
2020 2 15 06 -39.4 160.5 0 -1 symmetric - - symmetric - - Image
2020 2 15 12 -40.4 161.2 0 -1 symmetric - - symmetric - - Image
2020 2 15 18 -41.9 162.9 0 -1 symmetric - - symmetric - - Image
2020 2 16 00 -44.2 163.9 0 -1 symmetric - - symmetric - - Image
2020 2 16 06 -45.2 164.3 0 -1 symmetric - - symmetric - - Image
2020 2 16 12 -45.7 164.6 0 -1 symmetric - - symmetric - - Image
2020 2 16 18 -46.2 164.2 0 -1 symmetric - - symmetric - - Image
2020 2 17 00 -47.1 162.8 0 -1 symmetric - - symmetric - - Image
2020 2 17 06 -48.5 161.0 0 -1 symmetric - - symmetric - - Image
< Cyclone 202005 2020 Season Cyclone 202007 >

Help